METAR AND TAF INFORMATION
METAR FOR KONT
ADDS - METARS form results

(1917 UTC 26 April 2018)
Data provider http://aviationweather.gov/adds/metars/
 
METAR text: KONT 261853Z 24007KT 9SM CLR 22/08 A3002 RMK AO2 SLP157 T02220083
Conditions at: KONT (ONTARIO , CA, US) observed 1853 UTC 26 April 2018
Temperature: 22.2°C (72°F)
Dewpoint: 8.3°C (47°F) [RH = 41%]
Pressure (altimeter): 30.02 inches Hg (1016.7 mb)
[Sea-level pressure: 1015.7 mb]
Winds: from the WSW (240 degrees) at 8 MPH (7 knots; 3.6 m/s)
Visibility: 9 miles (14 km)
Ceiling: at least 12,000 feet AGL
Clouds: sky clear below 12,000 feet AGL
Weather: no significant weather observed at this time

Forecast for: KONT (ONTARIO , CA, US)
Text: KONT 261911Z 2619/2724 24007KT P6SM SKC
Forecast period: 1900 to 2100 UTC 26 April 2018
Forecast type: FROM: standard forecast or significant change
Winds: from the WSW (240 degrees) at 8 MPH (7 knots; 3.6 m/s)
Visibility: 6 or more miles (10+ km)
Clouds: clear skies
Weather: no significant weather forecast for this period
Forecast for: KONT (ONTARIO , CA, US)
Text: KONT 261911Z 2619/2724 24007KT P6SM SKC
Forecast period: 1900 to 2100 UTC 26 April 2018
Forecast type: FROM: standard forecast or significant change
Winds: from the WSW (240 degrees) at 8 MPH (7 knots; 3.6 m/s)
Visibility: 6 or more miles (10+ km)
Clouds: clear skies
Weather: no significant weather forecast for this period
Forecast for: KONT (ONTARIO , CA, US)
Text: KONT 261911Z 2619/2724 24007KT P6SM SKC
Forecast period: 2100 UTC 26 April 2018 to 0400 UTC 27 April 2018
Forecast type: FROM: standard forecast or significant change
Winds: from the WSW (250 degrees) at 12 MPH (10 knots; 5.2 m/s)
gusting to 21 MPH (18 knots; 9.4 m/s)
Visibility: 6 or more miles (10+ km)
Clouds: few clouds at 25000 feet AGL
Weather: no significant weather forecast for this period
Forecast for: KONT (ONTARIO , CA, US)
Text: KONT 261911Z 2619/2724 24007KT P6SM SKC
Forecast period: 2100 UTC 26 April 2018 to 0400 UTC 27 April 2018
Forecast type: FROM: standard forecast or significant change
Winds: from the WSW (250 degrees) at 12 MPH (10 knots; 5.2 m/s)
gusting to 21 MPH (18 knots; 9.4 m/s)
Visibility: 6 or more miles (10+ km)
Clouds: few clouds at 25000 feet AGL
Weather: no significant weather forecast for this period
Forecast for: KONT (ONTARIO , CA, US)
Text: KONT 261911Z 2619/2724 24007KT P6SM SKC
Forecast period: 0400 to 1000 UTC 27 April 2018
Forecast type: FROM: standard forecast or significant change
Winds: from the W (260 degrees) at 8 MPH (7 knots; 3.6 m/s)
Visibility: 6 or more miles (10+ km)
Clouds: clear skies
Weather: no significant weather forecast for this period
Forecast for: KONT (ONTARIO , CA, US)
Text: KONT 261911Z 2619/2724 24007KT P6SM SKC
Forecast period: 0400 to 1000 UTC 27 April 2018
Forecast type: FROM: standard forecast or significant change
Winds: from the W (260 degrees) at 8 MPH (7 knots; 3.6 m/s)
Visibility: 6 or more miles (10+ km)
Clouds: clear skies
Weather: no significant weather forecast for this period
Forecast for: KONT (ONTARIO , CA, US)
Text: KONT 261911Z 2619/2724 24007KT P6SM SKC
Forecast period: 1000 to 1600 UTC 27 April 2018
Forecast type: FROM: standard forecast or significant change
Winds: variable direction winds at 5 MPH (4 knots; 2.1 m/s)
Visibility: 4 miles (6 km)
Ceiling: 1000 feet AGL
Clouds: broken clouds at 1000 feet AGL
Weather: BR  (mist)
Forecast for: KONT (ONTARIO , CA, US)
Text: KONT 261911Z 2619/2724 24007KT P6SM SKC
Forecast period: 1000 to 1600 UTC 27 April 2018
Forecast type: FROM: standard forecast or significant change
Winds: variable direction winds at 5 MPH (4 knots; 2.1 m/s)
Visibility: 4 miles (6 km)
Ceiling: 1000 feet AGL
Clouds: broken clouds at 1000 feet AGL
Weather: BR  (mist)
Forecast for: KONT (ONTARIO , CA, US)
Text: KONT 261911Z 2619/2724 24007KT P6SM SKC
Forecast period: 1600 to 2100 UTC 27 April 2018
Forecast type: FROM: standard forecast or significant change
Winds: variable direction winds at 3 MPH (3 knots; 1.6 m/s)
Visibility: 6 miles (10 km)
Clouds: few clouds at 1000 feet AGL
Weather: HZ  (haze)
Forecast for: KONT (ONTARIO , CA, US)
Text: KONT 261911Z 2619/2724 24007KT P6SM SKC
Forecast period: 1600 to 2100 UTC 27 April 2018
Forecast type: FROM: standard forecast or significant change
Winds: variable direction winds at 3 MPH (3 knots; 1.6 m/s)
Visibility: 6 miles (10 km)
Clouds: few clouds at 1000 feet AGL
Weather: HZ  (haze)
Forecast for: KONT (ONTARIO , CA, US)
Text: KONT 261911Z 2619/2724 24007KT P6SM SKC
Forecast period: 2100 UTC 27 April 2018 to 0000 UTC 28 April 2018
Forecast type: FROM: standard forecast or significant change
Winds: from the W (260 degrees) at 12 MPH (10 knots; 5.2 m/s)
gusting to 21 MPH (18 knots; 9.4 m/s)
Visibility: 6 or more miles (10+ km)
Clouds: clear skies
Weather: no significant weather forecast for this period
Forecast for: KONT (ONTARIO , CA, US)
Text: KONT 261911Z 2619/2724 24007KT P6SM SKC
Forecast period: 2100 UTC 27 April 2018 to 0000 UTC 28 April 2018
Forecast type: FROM: standard forecast or significant change
Winds: from the W (260 degrees) at 12 MPH (10 knots; 5.2 m/s)
gusting to 21 MPH (18 knots; 9.4 m/s)
Visibility: 6 or more miles (10+ km)
Clouds: clear skies
Weather: no significant weather forecast for this period

 AIRPORT MAP

 RUNWAY INFORMATION
Runway 08L Runway length 12198 ft Runway width 150 ft
Runway elevation 943 ft Runway displaced threshold 998 ft Runway heading 90
Runway 26R Runway length 12198 ft Runway width 150 ft
Runway elevation 930 ft Runway displaced threshold 0 ft Runway heading 270
Runway 08R Runway length 10200 ft Runway width 150 ft
Runway elevation 935 ft Runway displaced threshold 0 ft Runway heading 90
Runway 26L Runway length 10200 ft Runway width 150 ft
Runway elevation 924 ft Runway displaced threshold 0 ft Runway heading 270

 AIRPORT FREQUENCIES
Type A/D Name SOCAL APP/ Frequency 119.65 MHZ
Type ATIS Name ATIS Frequency 124.25 MHZ
Type CLD Name CLNC DEL Frequency 118.1 MHZ
Type GND Name GND Frequency 121.9 MHZ
Type TWR Name TWR Frequency 120.6 MHZ

 AIRPORT NEAR NAVIGATION AIDS
Type NDB Name Petis Frequency 397 KHZ



v2.6.1